Chalfont Saint Giles, United Kingdom

5:24 AM GMT on December 23, 2014 (GMT +0000)
Little Chalfont | Change Station
CLOSE
Current Station
Personal Weather Station
Location: Amersham, ENGLAND
Elevation: 435 ft
Nearby Weather Stations

Elev 435 ft 51.67 °N, 0.56 °W | Updated 9 minutes ago

Partly Cloudy
Partly Cloudy
54.1 °F
Feels Like 54.1 °F
N
13.4
Wind Variable Wind from SSW
Gusts 13.4 mph

Today
High -- | Low -- °F
--% Chance of Precip.
Yesterday
High -- | Low -- °F
Precip. -- in
8:07 AM 3:55 PM
New Moon, 2% visible
Pressure 30.04 in
Visibility 6.2 miles
Clouds Few 3000 ft
Dew Point 32 °F
Humidity 29%
Rainfall -999.00 in
Snow Depth Not available.
UV 0 out of 12
Pollen Not available.
Air Quality Not available.
Flu Activity Not available.
METAR EGLL 230520Z 25016KT 9999 FEW030 11/07 Q1017 NOSIG

More Conditions Fewer Conditions

Pressure 30.04 in
Visibility 6.2 miles
Clouds Few 3000 ft
Dew Point 32 °F
Humidity 29%
Rainfall -999.00 in
Snow Depth Not available.
UV 0 out of 12
Pollen Not available.
Air Quality Not available.
Flu Activity Not available.
METAR EGLL 230520Z 25016KT 9999 FEW030 11/07 Q1017 NOSIG

More Conditions Fewer Conditions

10-Day Weather Forecast

Almanac

Astronomy

Dec. 23, 2014 Rise Set
Actual Time
Civil Twilight
Nautical Twilight
Astronomical Twilight
Moon
Length of Visible Light
Length of Day
Tomorrow will be .
, % of the Moon is Illuminated

Today's Extremes

Country Highs Country Lows

Community

WunderPhotos

Upload Photos

1,779,781 photos uploaded!

WunderBlogs® & News

Nearby

Air Quality

  Air Quality AQ Index Pollutant
Not available.

Snow Depth

Station Depth Elevation

Earthquake Activity

City Distance Mag. Time & Date
Minimum magnitude displayed is 2.5.

Coastal Water Temperatures

Place Temperature

Nearby Weather Stations